Boston, Massachusetts
Traffic Map
Current Weather Conditions
Boston, Massachusetts
Broken Clouds
Broken Clouds
35°
Feels Like: 30°
Wind Chill: 30° Ceiling: 1100
Heat Index: 35° Visibility: 10mi
Dew Point: 29° Wind: 6mph
Humidity: 78% Direction: 10° (N)
Pressure: 30.4in Gusts: 0mph
Raw Report DataKBOS 221354Z 01005KT 10SM BKN011 BKN055 02/M02 A3040 RMK AO2 SLP292 T00171017
Traffic Incident Summary
Active as of:
Severity:
Category:
InformationThere was an issue retrieving the traffic information for this location. Please try a different location or try again shortly.
Advertisements
Track Severe Weather on mobile